createdAt,value
2018-12-23T00:00:47.448Z,69.17
2018-12-23T00:03:13.447Z,68.58
2018-12-23T00:05:39.633Z,68.49
2018-12-23T00:08:05.704Z,69.42
2018-12-23T00:10:31.800Z,68.40
2018-12-23T00:12:57.758Z,68.98
2018-12-23T00:15:23.747Z,69.48
2018-12-23T00:17:49.773Z,69.05
2018-12-23T00:20:15.789Z,68.82
2018-12-23T00:22:41.863Z,69.05
2018-12-23T00:25:07.822Z,69.19
2018-12-23T00:27:34.247Z,68.79
2018-12-23T00:30:00.229Z,69.54
2018-12-23T00:32:26.309Z,69.31
2018-12-23T00:34:52.296Z,68.70
2018-12-23T00:37:18.322Z,68.89
2018-12-23T00:39:44.264Z,68.87
2018-12-23T00:42:10.271Z,68.96
2018-12-23T00:44:36.244Z,68.87
2018-12-23T00:47:02.251Z,68.74
2018-12-23T00:49:28.250Z,69.25
2018-12-23T00:51:54.257Z,69.14
2018-12-23T00:54:20.215Z,69.82
2018-12-23T00:56:46.218Z,69.57
2018-12-23T00:59:12.496Z,69.09
2018-12-23T01:01:38.553Z,69.23
2018-12-23T01:04:04.629Z,69.03
2018-12-23T01:06:30.657Z,68.86
2018-12-23T01:08:56.641Z,69.20
2018-12-23T01:11:22.643Z,69.33
2018-12-23T01:13:48.708Z,68.76
2018-12-23T01:16:14.664Z,69.78
2018-12-23T01:18:41.182Z,69.89
2018-12-23T01:21:07.154Z,69.71
2018-12-23T01:23:33.212Z,70.72
2018-12-23T01:25:59.218Z,70.29
2018-12-23T01:28:25.193Z,69.63
2018-12-23T01:30:51.190Z,70.31
2018-12-23T01:33:17.148Z,70.99
2018-12-23T01:35:43.138Z,70.14
2018-12-23T01:38:09.224Z,71.04
2018-12-23T01:40:35.216Z,70.79
2018-12-23T01:43:01.850Z,70.13
2018-12-23T01:45:27.866Z,71.23
2018-12-23T01:47:53.834Z,71.61
2018-12-23T01:50:19.814Z,71.35
2018-12-23T01:52:45.802Z,71.01
2018-12-23T01:55:11.825Z,71.50
2018-12-23T01:57:37.797Z,71.53
2018-12-23T02:00:05.297Z,71.51
2018-12-23T02:02:31.318Z,71.30
2018-12-23T02:04:57.323Z,71.59
2018-12-23T02:07:23.281Z,70.50
2018-12-23T02:09:49.409Z,70.75
2018-12-23T02:12:20.477Z,70.65
2018-12-23T02:14:46.790Z,70.58
2018-12-23T02:17:12.787Z,70.81
2018-12-23T02:19:38.798Z,71.17
2018-12-23T02:22:04.745Z,71.60
2018-12-23T02:24:30.761Z,71.72
2018-12-23T02:26:56.834Z,72.26
2018-12-23T02:29:22.868Z,71.56
2018-12-23T02:31:48.835Z,71.33
2018-12-23T02:34:14.845Z,71.21
2018-12-23T02:36:40.793Z,70.76
2018-12-23T02:39:06.900Z,71.54
2018-12-23T02:41:32.899Z,70.95
2018-12-23T02:43:58.871Z,71.33
2018-12-23T02:46:24.875Z,70.60
2018-12-23T02:48:50.829Z,70.22
2018-12-23T02:51:16.831Z,70.20
2018-12-23T02:53:42.810Z,70.85
2018-12-23T02:56:08.799Z,70.79
2018-12-23T02:58:34.759Z,70.90
2018-12-23T03:01:00.766Z,71.04
2018-12-23T03:03:26.717Z,71.22
2018-12-23T03:05:52.869Z,71.15
2018-12-23T03:08:18.836Z,71.14
2018-12-23T03:10:44.838Z,70.87
2018-12-23T03:13:10.826Z,70.17
2018-12-23T03:15:36.833Z,70.84
2018-12-23T03:18:02.821Z,71.11
2018-12-23T03:20:28.794Z,70.44
2018-12-23T03:22:54.800Z,71.00
2018-12-23T03:25:20.735Z,71.31
2018-12-23T03:27:46.747Z,70.67
2018-12-23T03:30:12.713Z,71.07
2018-12-23T03:32:38.695Z,71.48
2018-12-23T03:35:04.793Z,71.22
2018-12-23T03:37:30.794Z,71.12
2018-12-23T03:39:56.739Z,70.68
2018-12-23T03:42:22.730Z,70.86
2018-12-23T03:44:48.777Z,71.47
2018-12-23T03:47:14.759Z,70.37
2018-12-23T03:49:40.732Z,70.61
2018-12-23T03:52:06.726Z,70.14
2018-12-23T03:54:32.680Z,70.40
2018-12-23T03:56:58.726Z,71.10
2018-12-23T03:59:28.525Z,70.47
2018-12-23T04:01:54.802Z,70.90
2018-12-23T04:04:20.764Z,70.16
2018-12-23T04:06:46.766Z,71.22
2018-12-23T04:09:19.742Z,71.31
2018-12-23T04:11:46.305Z,70.86
2018-12-23T04:14:12.255Z,71.96
2018-12-23T04:16:38.255Z,71.69
2018-12-23T04:19:04.275Z,73.21
2018-12-23T04:21:30.313Z,72.45
2018-12-23T04:23:56.292Z,71.23
2018-12-23T04:26:22.380Z,72.80
2018-12-23T04:28:48.345Z,71.94
2018-12-23T04:31:14.301Z,71.84
2018-12-23T04:33:40.329Z,73.12
2018-12-23T04:36:06.311Z,73.31
2018-12-23T04:38:32.538Z,72.94
2018-12-23T04:40:58.547Z,73.48
2018-12-23T04:43:24.563Z,73.36
2018-12-23T04:45:50.530Z,72.59
2018-12-23T04:48:16.515Z,72.96
2018-12-23T04:50:42.491Z,73.50
2018-12-23T04:53:08.524Z,71.94
2018-12-23T04:55:34.477Z,72.95
2018-12-23T04:58:00.540Z,72.69
2018-12-23T05:00:26.504Z,72.83
2018-12-23T05:02:52.558Z,72.90
2018-12-23T05:05:18.524Z,72.43
2018-12-23T05:07:44.524Z,72.85
2018-12-23T05:10:10.526Z,72.60
2018-12-23T05:12:36.538Z,73.02
2018-12-23T05:15:02.557Z,72.79
2018-12-23T05:17:28.570Z,72.63
2018-12-23T05:19:54.519Z,73.26
2018-12-23T05:22:20.491Z,71.45
2018-12-23T05:24:46.508Z,72.02
2018-12-23T05:27:12.518Z,71.75
2018-12-23T05:29:38.471Z,71.77
2018-12-23T05:32:04.479Z,72.55
2018-12-23T05:34:30.446Z,71.74
2018-12-23T05:36:56.481Z,71.24
2018-12-23T05:39:22.489Z,71.73
2018-12-23T05:41:48.467Z,71.83
2018-12-23T05:44:14.521Z,71.35
2018-12-23T05:46:45.722Z,70.57
2018-12-23T05:49:11.987Z,70.23
2018-12-23T05:51:37.979Z,70.94
2018-12-23T05:54:03.982Z,71.21
2018-12-23T05:56:30.243Z,71.24
2018-12-23T05:58:56.221Z,72.08
2018-12-23T06:01:22.227Z,71.21
2018-12-23T06:03:48.238Z,70.94
2018-12-23T06:06:14.194Z,70.57
2018-12-23T06:08:40.175Z,70.83
2018-12-23T06:11:06.167Z,70.96
2018-12-23T06:13:32.785Z,71.02
2018-12-23T06:15:58.750Z,70.27
2018-12-23T06:18:24.747Z,70.92
2018-12-23T06:20:50.724Z,71.13
2018-12-23T06:23:16.721Z,71.06
2018-12-23T06:25:42.699Z,70.72
2018-12-23T06:28:08.716Z,71.76
2018-12-23T06:30:34.692Z,72.28
2018-12-23T06:33:00.696Z,71.83
2018-12-23T06:35:26.692Z,72.88
2018-12-23T06:37:52.779Z,71.71
2018-12-23T06:40:18.803Z,72.14
2018-12-23T06:42:44.806Z,72.28
2018-12-23T06:45:10.815Z,72.49
2018-12-23T06:47:36.804Z,72.55
2018-12-23T06:50:03.859Z,72.65
2018-12-23T06:52:29.852Z,71.79
2018-12-23T06:54:56.459Z,71.97
2018-12-23T06:57:22.547Z,71.72
2018-12-23T06:59:48.548Z,71.76
2018-12-23T07:02:14.590Z,71.67
2018-12-23T07:04:40.548Z,71.61
2018-12-23T07:07:06.672Z,71.03
2018-12-23T07:09:32.692Z,71.23
2018-12-23T07:11:58.668Z,71.38
2018-12-23T07:14:24.651Z,71.27
2018-12-23T07:16:50.700Z,71.47
2018-12-23T07:19:16.717Z,71.32
2018-12-23T07:21:42.722Z,71.60
2018-12-23T07:24:08.683Z,71.49
2018-12-23T07:26:34.685Z,71.10
2018-12-23T07:29:00.651Z,71.19
2018-12-23T07:31:27.235Z,71.85
2018-12-23T07:33:56.837Z,70.73
2018-12-23T07:36:23.084Z,70.41
2018-12-23T07:38:49.163Z,70.18
2018-12-23T07:41:15.121Z,70.43
2018-12-23T07:43:41.123Z,70.00
2018-12-23T07:46:07.083Z,69.80
2018-12-23T07:48:33.177Z,69.43
2018-12-23T07:50:59.219Z,69.70
2018-12-23T07:53:25.242Z,69.53
2018-12-23T07:55:51.241Z,69.75
2018-12-23T07:58:17.391Z,70.12
2018-12-23T08:00:43.400Z,69.89
2018-12-23T08:03:09.357Z,69.54
2018-12-23T08:05:35.391Z,69.99
2018-12-23T08:08:01.367Z,69.96
2018-12-23T08:10:27.383Z,70.10
2018-12-23T08:12:53.363Z,69.52
2018-12-23T08:15:19.377Z,69.24
2018-12-23T08:17:45.435Z,69.45
2018-12-23T08:20:11.467Z,69.77
2018-12-23T08:22:37.489Z,69.38
2018-12-23T08:25:03.550Z,68.67
2018-12-23T08:27:29.569Z,68.23
2018-12-23T08:29:55.589Z,69.24
2018-12-23T08:32:21.610Z,69.09
2018-12-23T08:34:47.595Z,69.66
2018-12-23T08:37:15.199Z,68.97
2018-12-23T08:39:41.282Z,68.68
2018-12-23T08:42:07.423Z,68.89
2018-12-23T08:44:33.432Z,69.76
2018-12-23T08:46:59.452Z,69.53
2018-12-23T08:49:25.543Z,69.07
2018-12-23T08:51:51.872Z,69.75
2018-12-23T08:54:17.884Z,69.06
2018-12-23T08:56:43.964Z,69.60
2018-12-23T08:59:10.045Z,68.81
2018-12-23T09:01:36.120Z,69.74
2018-12-23T09:04:02.228Z,69.66
2018-12-23T09:06:35.188Z,69.19
2018-12-23T09:09:01.149Z,69.50
2018-12-23T09:11:27.262Z,69.13
2018-12-23T09:13:53.252Z,69.33
2018-12-23T09:16:19.196Z,69.27
2018-12-23T09:18:45.276Z,68.70
2018-12-23T09:21:16.623Z,69.26
2018-12-23T09:23:42.667Z,69.24
2018-12-23T09:26:08.619Z,69.14
2018-12-23T09:28:34.645Z,69.06
2018-12-23T09:31:00.627Z,68.33
2018-12-23T09:33:26.826Z,68.08
2018-12-23T09:35:52.827Z,69.00
2018-12-23T09:38:18.812Z,68.87
2018-12-23T09:40:45.475Z,69.70
2018-12-23T09:43:11.465Z,68.68
2018-12-23T09:45:37.465Z,69.20
2018-12-23T09:48:03.450Z,68.95
2018-12-23T09:50:29.469Z,69.28
2018-12-23T09:52:55.445Z,69.25
2018-12-23T09:55:21.547Z,68.89
2018-12-23T09:57:47.632Z,68.56
2018-12-23T10:00:13.826Z,68.71
2018-12-23T10:02:39.815Z,68.86
2018-12-23T10:05:05.976Z,69.13
2018-12-23T10:07:31.947Z,69.01
2018-12-23T10:09:57.943Z,69.32
2018-12-23T10:12:23.898Z,69.17
2018-12-23T10:14:49.904Z,69.55
2018-12-23T10:17:15.970Z,68.58
2018-12-23T10:19:41.933Z,68.76
2018-12-23T10:22:07.977Z,68.95
2018-12-23T10:24:33.933Z,68.76
2018-12-23T10:26:59.979Z,68.20
2018-12-23T10:29:25.948Z,68.73
2018-12-23T10:31:51.955Z,68.09
2018-12-23T10:34:17.923Z,68.70
2018-12-23T10:36:43.933Z,67.60
2018-12-23T10:39:09.911Z,67.82
2018-12-23T10:41:35.907Z,68.73
2018-12-23T10:44:01.921Z,68.59
2018-12-23T10:46:28.009Z,68.26
2018-12-23T10:48:53.971Z,68.89
2018-12-23T10:51:19.957Z,68.05
2018-12-23T10:53:45.959Z,67.37
2018-12-23T10:56:11.947Z,67.72
2018-12-23T10:58:37.955Z,68.42
2018-12-23T11:01:03.986Z,68.28
2018-12-23T11:03:29.941Z,67.72
2018-12-23T11:05:55.920Z,67.84
2018-12-23T11:08:26.899Z,67.81
2018-12-23T11:10:49.913Z,67.19
2018-12-23T11:13:15.922Z,67.05
2018-12-23T11:15:42.020Z,68.29
2018-12-23T11:18:07.984Z,67.63
2018-12-23T11:20:34.068Z,67.63
2018-12-23T11:23:00.047Z,67.48
2018-12-23T11:25:26.131Z,67.54
2018-12-23T11:27:52.192Z,67.66
2018-12-23T11:30:18.207Z,67.49
2018-12-23T11:32:44.280Z,67.46
2018-12-23T11:35:10.398Z,66.86
2018-12-23T11:37:36.692Z,67.47
2018-12-23T11:40:04.772Z,67.95
2018-12-23T11:42:30.896Z,67.84
2018-12-23T11:44:56.872Z,67.86
2018-12-23T11:47:22.950Z,67.21
2018-12-23T11:49:48.948Z,66.90
2018-12-23T11:52:14.968Z,67.99
2018-12-23T11:54:41.055Z,67.64
2018-12-23T11:57:07.055Z,68.13
2018-12-23T11:59:34.340Z,67.78
2018-12-23T12:02:00.544Z,68.01
2018-12-23T12:04:26.496Z,68.01
2018-12-23T12:06:52.510Z,67.17
2018-12-23T12:09:18.484Z,68.07
2018-12-23T12:11:44.591Z,67.62
2018-12-23T12:14:10.725Z,68.59
2018-12-23T12:16:36.706Z,69.13
2018-12-23T12:19:02.693Z,68.56
2018-12-23T12:21:28.703Z,68.60
2018-12-23T12:23:54.686Z,68.79
2018-12-23T12:26:20.663Z,69.03
2018-12-23T12:28:46.713Z,69.12
2018-12-23T12:31:12.703Z,69.14
2018-12-23T12:33:38.767Z,69.14
2018-12-23T12:36:04.740Z,69.43
2018-12-23T12:38:37.688Z,69.78
2018-12-23T12:41:03.677Z,69.71
2018-12-23T12:43:29.691Z,70.10
2018-12-23T12:46:00.478Z,70.43
2018-12-23T12:48:23.698Z,70.99
2018-12-23T12:50:49.699Z,70.47
2018-12-23T12:53:16.266Z,70.64
2018-12-23T12:55:42.268Z,70.81
2018-12-23T12:58:08.384Z,71.34
2018-12-23T13:00:34.487Z,71.84
2018-12-23T13:03:00.558Z,70.98
2018-12-23T13:05:26.525Z,72.02
2018-12-23T13:07:52.528Z,71.56
2018-12-23T13:10:18.529Z,71.20
2018-12-23T13:12:44.482Z,71.38
2018-12-23T13:15:10.518Z,71.14
2018-12-23T13:17:36.523Z,71.67
2018-12-23T13:20:03.663Z,71.57
2018-12-23T13:22:29.679Z,71.55
2018-12-23T13:24:55.647Z,72.08
2018-12-23T13:27:21.757Z,72.58
2018-12-23T13:29:47.756Z,71.77
2018-12-23T13:32:13.799Z,71.69
2018-12-23T13:34:39.765Z,71.07
2018-12-23T13:37:05.781Z,71.68
2018-12-23T13:39:31.885Z,70.49
2018-12-23T13:42:01.961Z,71.09
2018-12-23T13:44:40.409Z,71.43
2018-12-23T13:47:22.345Z,71.77
2018-12-23T13:53:56.243Z,70.90
2018-12-23T14:00:02.854Z,70.96
2018-12-23T14:03:08.677Z,70.26
2018-12-23T14:06:14.465Z,70.22
2018-12-23T14:14:54.789Z,70.05
2018-12-23T14:17:20.823Z,70.19
2018-12-23T14:19:46.847Z,70.29
2018-12-23T14:22:12.873Z,69.70
2018-12-23T14:24:38.898Z,69.84
2018-12-23T14:27:04.939Z,69.20
2018-12-23T14:29:30.947Z,70.12
2018-12-23T14:31:56.953Z,69.49
2018-12-23T14:34:42.966Z,70.11
2018-12-23T14:37:09.029Z,69.79
2018-12-23T14:39:35.036Z,69.56
2018-12-23T14:42:01.069Z,69.13
2018-12-23T14:44:27.133Z,69.49
2018-12-23T14:49:25.568Z,69.22
2018-12-23T14:51:51.608Z,69.65
2018-12-23T14:54:17.613Z,68.76
2018-12-23T14:56:43.651Z,69.39
2018-12-23T14:59:09.661Z,69.19
2018-12-23T15:01:35.692Z,68.90
2018-12-23T15:04:01.697Z,69.33
2018-12-23T15:06:27.739Z,69.58
2018-12-23T15:08:53.725Z,69.22
2018-12-23T15:11:19.723Z,68.85
2018-12-23T15:13:45.795Z,69.16
2018-12-23T15:16:11.795Z,69.20
2018-12-23T15:18:37.813Z,69.63
2018-12-23T15:21:03.820Z,69.62
2018-12-23T15:23:29.854Z,70.12
2018-12-23T15:25:55.862Z,70.03
2018-12-23T15:28:21.897Z,69.91
2018-12-23T15:30:47.904Z,69.77
2018-12-23T15:33:13.932Z,70.35
2018-12-23T15:35:39.928Z,70.36
2018-12-23T15:38:05.954Z,70.43
2018-12-23T15:40:31.992Z,70.65
2018-12-23T15:42:57.980Z,71.01
2018-12-23T15:45:24.068Z,71.20
2018-12-23T15:47:50.063Z,71.45
2018-12-23T15:50:16.098Z,71.45
2018-12-23T15:53:02.076Z,71.55
2018-12-23T15:55:28.130Z,72.06
2018-12-23T15:57:54.172Z,71.26
2018-12-23T16:00:20.180Z,70.31
2018-12-23T16:02:46.216Z,70.64
2018-12-23T16:05:12.216Z,70.87
2018-12-23T16:07:38.262Z,71.48
2018-12-23T16:13:17.809Z,71.26
2018-12-23T16:15:43.821Z,71.72
2018-12-23T16:18:09.826Z,71.49
2018-12-23T16:20:36.672Z,71.00
2018-12-23T16:23:03.849Z,71.42
2018-12-23T16:25:29.878Z,72.20
2018-12-23T16:27:55.874Z,71.79
2018-12-23T16:30:22.740Z,72.03
2018-12-23T16:32:49.846Z,72.17
2018-12-23T16:35:15.933Z,72.06
2018-12-23T16:37:41.925Z,71.99
2018-12-23T16:40:49.604Z,72.76
2018-12-23T16:43:15.652Z,72.75
2018-12-23T16:48:14.231Z,72.78
2018-12-23T16:50:40.274Z,73.03
2018-12-23T16:53:06.275Z,72.62
2018-12-23T16:55:34.480Z,72.69
2018-12-23T16:58:01.463Z,73.18
2018-12-23T17:00:28.270Z,72.76
2018-12-23T17:02:54.295Z,73.54
2018-12-23T17:05:20.333Z,73.56
2018-12-23T17:08:06.341Z,73.83
2018-12-23T17:10:32.335Z,72.85
2018-12-23T17:12:58.366Z,73.03
2018-12-23T17:15:24.852Z,73.56
2018-12-23T17:17:50.872Z,73.55
2018-12-23T17:20:16.874Z,73.80
2018-12-23T17:22:42.931Z,73.82
2018-12-23T17:25:08.888Z,74.12
2018-12-23T17:27:34.928Z,74.45
2018-12-23T17:30:00.936Z,73.78
2018-12-23T17:32:46.820Z,74.16
2018-12-23T17:35:13.597Z,73.59
2018-12-23T17:37:40.875Z,73.93
2018-12-23T17:40:06.889Z,73.97
2018-12-23T17:42:32.938Z,73.47
2018-12-23T17:44:58.976Z,74.49
2018-12-23T17:47:24.987Z,74.54
2018-12-23T17:49:51.021Z,73.86
2018-12-23T17:52:23.164Z,74.24
2018-12-23T17:54:45.037Z,73.87
2018-12-23T17:57:11.088Z,73.69
2018-12-23T17:59:37.094Z,73.80
2018-12-23T18:02:03.142Z,74.62
2018-12-23T18:04:29.183Z,74.51
2018-12-23T18:09:27.828Z,74.21
2018-12-23T18:11:53.850Z,73.66
2018-12-23T18:14:19.857Z,73.66
2018-12-23T18:16:46.026Z,73.59
2018-12-23T18:19:13.884Z,73.47
2018-12-23T18:21:39.882Z,73.76
2018-12-23T18:24:05.918Z,73.45
2018-12-23T18:26:31.912Z,73.09
2018-12-23T18:28:57.938Z,72.90
2018-12-23T18:31:23.997Z,72.77
2018-12-23T18:33:50.035Z,72.85
2018-12-23T18:36:16.043Z,73.19
2018-12-23T18:38:42.066Z,73.55
2018-12-23T18:41:08.070Z,72.92
2018-12-23T18:43:34.102Z,72.85
2018-12-23T18:46:00.092Z,72.94
2018-12-23T18:48:26.129Z,72.14
2018-12-23T18:50:52.120Z,72.51
2018-12-23T18:53:18.161Z,72.72
2018-12-23T18:55:44.211Z,73.11
2018-12-23T18:58:10.197Z,73.25
2018-12-23T19:03:30.219Z,73.23
2018-12-23T19:05:56.274Z,72.78
2018-12-23T19:09:04.026Z,72.94
2018-12-23T19:12:11.702Z,73.39
2018-12-23T19:18:31.368Z,72.96
2018-12-23T19:24:37.929Z,72.72
2018-12-23T19:36:44.923Z,73.56
2018-12-23T19:39:50.722Z,73.64
2018-12-23T19:51:59.285Z,73.03
2018-12-23T19:55:05.091Z,72.73
2018-12-23T19:58:10.842Z,72.90
2018-12-23T20:01:18.530Z,73.06
2018-12-23T20:10:39.121Z,73.11
2018-12-23T20:13:20.907Z,73.17
2018-12-23T20:16:26.704Z,73.49
2018-12-23T20:19:32.471Z,73.56
2018-12-23T20:22:38.293Z,73.43
2018-12-23T20:25:45.983Z,73.97
2018-12-23T20:28:51.726Z,73.97
2018-12-23T20:31:57.530Z,74.19
2018-12-23T20:35:03.275Z,73.90
2018-12-23T20:38:09.077Z,74.34
2018-12-23T20:41:14.841Z,74.01
2018-12-23T20:44:20.641Z,74.51
2018-12-23T20:47:26.435Z,75.42
2018-12-23T20:50:34.142Z,75.33
2018-12-23T20:56:53.992Z,75.38
2018-12-23T20:59:59.827Z,74.98
2018-12-23T21:03:05.606Z,76.12
2018-12-23T21:06:11.355Z,76.25
2018-12-23T21:09:19.059Z,75.49
2018-12-23T21:15:38.413Z,75.16
2018-12-23T21:18:44.227Z,74.32
2018-12-23T21:24:50.410Z,75.24
2018-12-23T21:27:56.251Z,75.08
2018-12-23T21:31:02.005Z,74.57
2018-12-23T21:34:07.827Z,75.01
2018-12-23T21:37:13.623Z,74.67
2018-12-23T21:40:19.408Z,74.47
2018-12-23T21:43:25.243Z,75.32
2018-12-23T21:46:32.929Z,74.54
2018-12-23T21:49:38.680Z,74.25
2018-12-23T21:52:44.472Z,74.86
2018-12-23T21:55:50.290Z,74.82
2018-12-23T21:58:56.110Z,74.71
2018-12-23T22:11:03.748Z,76.69
2018-12-23T22:13:29.814Z,76.08
2018-12-23T22:15:55.805Z,76.28
2018-12-23T22:18:21.825Z,76.38
2018-12-23T22:20:47.838Z,76.05
2018-12-23T22:23:13.890Z,76.54
2018-12-23T22:25:39.903Z,76.68
2018-12-23T22:28:05.970Z,76.58
2018-12-23T22:30:31.996Z,76.40
2018-12-23T22:32:59.386Z,76.20
2018-12-23T22:35:25.967Z,76.53
2018-12-23T22:37:52.002Z,76.08
2018-12-23T22:40:18.055Z,75.88
2018-12-23T22:42:44.063Z,75.72
2018-12-23T22:45:10.139Z,75.64
2018-12-23T22:47:36.143Z,75.96
2018-12-23T22:50:02.193Z,75.72
2018-12-23T22:52:28.203Z,76.23
2018-12-23T22:54:54.239Z,75.90
2018-12-23T22:57:20.257Z,76.16
2018-12-23T22:59:46.310Z,75.72
2018-12-23T23:02:12.307Z,76.11
2018-12-23T23:04:38.412Z,76.04
2018-12-23T23:07:04.452Z,76.06
2018-12-23T23:09:30.447Z,75.83
2018-12-23T23:11:56.501Z,76.49
2018-12-23T23:14:22.511Z,76.62
2018-12-23T23:16:48.535Z,76.98
2018-12-23T23:19:14.536Z,76.95
2018-12-23T23:21:40.590Z,76.57
2018-12-23T23:24:06.587Z,76.02
2018-12-23T23:26:32.602Z,76.59
2018-12-23T23:28:58.592Z,76.26
2018-12-23T23:31:24.623Z,75.58
2018-12-23T23:33:50.654Z,75.01
2018-12-23T23:36:16.685Z,75.02
2018-12-23T23:38:42.750Z,74.89
2018-12-23T23:41:08.756Z,74.93
2018-12-23T23:43:34.754Z,75.95
2018-12-23T23:46:00.780Z,75.74
2018-12-23T23:48:26.814Z,75.79
2018-12-23T23:50:52.854Z,75.95
2018-12-23T23:53:18.906Z,76.25
2018-12-23T23:55:44.942Z,75.64
2018-12-23T23:58:10.982Z,75.42
